Time;durP1;ratioP1;P1;durP2;ratioP2;P2;SDS_P1;SDS_P2;PMS_P1;PMS_P2;Temp;Humidity;BMP_temperature;BMP_pressure;BME280_temperature;BME280_humidity;BME280_pressure;Samples;Min_cycle;Max_cycle;Signal;HPM_P1;HPM_P2
2022/08/08 00:00:00;;;;;;;8.73;5.67;;;12.50;81.70;;;;;;5014611;28;20166;-85
2022/08/08 00:02:38;;;;;;;7.47;5.23;;;12.50;82.00;;;;;;5014532;28;20170;-85
2022/08/08 00:05:23;;;;;;;9.73;4.80;;;12.50;82.10;;;;;;5014775;28;20533;-85
2022/08/08 00:08:14;;;;;;;8.13;5.13;;;12.60;82.20;;;;;;5014319;28;20170;-85
2022/08/08 00:10:54;;;;;;;6.87;5.13;;;12.60;82.10;;;;;;5014170;28;20742;-85
2022/08/08 00:13:57;;;;;;;7.83;5.40;;;12.70;81.90;;;;;;5014140;28;20169;-85
2022/08/08 00:16:44;;;;;;;8.47;5.93;;;12.70;81.60;;;;;;5014060;28;20196;-86
2022/08/08 00:19:25;;;;;;;9.43;5.80;;;12.70;81.20;;;;;;5029835;28;20569;-85
2022/08/08 00:22:15;;;;;;;6.73;5.97;;;12.70;81.00;;;;;;5015333;28;20165;-85
2022/08/08 00:25:03;;;;;;;8.13;6.30;;;12.70;81.70;;;;;;5014753;28;20197;-86
2022/08/08 00:27:30;;;;;;;11.20;6.20;;;12.70;84.90;;;;;;5015106;28;20209;-85
2022/08/08 00:30:04;;;;;;;7.47;6.00;;;12.70;85.90;;;;;;5013700;28;20562;-85
2022/08/08 00:32:49;;;;;;;18.30;6.30;;;12.70;85.80;;;;;;5013969;28;20205;-85
2022/08/08 00:35:38;;;;;;;6.37;5.77;;;12.70;85.30;;;;;;5013874;28;20166;-85
2022/08/08 00:38:07;;;;;;;8.73;6.60;;;12.80;84.80;;;;;;5013641;28;20176;-85
2022/08/08 00:40:40;;;;;;;12.50;6.53;;;12.70;84.20;;;;;;5014744;28;20265;-85
2022/08/08 00:43:24;;;;;;;9.73;7.13;;;12.70;84.10;;;;;;5014986;28;20197;-85
2022/08/08 00:46:24;;;;;;;7.97;6.27;;;12.60;83.80;;;;;;5014569;28;20209;-85
2022/08/08 00:49:28;;;;;;;13.53;7.00;;;12.50;84.10;;;;;;5013440;28;20177;-85
2022/08/08 00:52:07;;;;;;;7.80;6.53;;;12.50;84.50;;;;;;5014749;28;20295;-85
2022/08/08 00:55:15;;;;;;;10.07;6.90;;;12.40;84.80;;;;;;5013493;28;20603;-85
2022/08/08 00:58:17;;;;;;;6.63;5.73;;;12.50;84.50;;;;;;5013476;28;20169;-85
2022/08/08 01:01:27;;;;;;;7.53;5.40;;;12.60;83.90;;;;;;5013163;28;20169;-85
2022/08/08 01:03:59;;;;;;;9.60;7.00;;;12.60;83.30;;;;;;5012226;28;20185;-85
2022/08/08 01:06:39;;;;;;;8.40;7.30;;;12.60;83.30;;;;;;5013453;28;20232;-85
2022/08/08 01:09:39;;;;;;;11.27;8.17;;;12.60;84.50;;;;;;5013053;28;20239;-85
2022/08/08 01:12:35;;;;;;;13.27;8.33;;;12.40;85.30;;;;;;5013034;28;20201;-85
2022/08/08 01:15:34;;;;;;;11.10;8.10;;;12.40;85.90;;;;;;5013085;28;20188;-84
2022/08/08 01:18:31;;;;;;;10.80;8.30;;;12.40;85.80;;;;;;5013236;28;20170;-86
2022/08/08 01:21:48;;;;;;;8.63;7.77;;;12.40;86.10;;;;;;5014057;28;20185;-85
2022/08/08 01:24:35;;;;;;;8.60;7.33;;;12.40;86.40;;;;;;5015457;28;20170;-85
2022/08/08 01:27:34;;;;;;;7.40;6.70;;;12.40;86.30;;;;;;5015872;28;20192;-85
2022/08/08 01:30:24;;;;;;;10.80;6.40;;;12.50;85.60;;;;;;5015270;28;20181;-86
2022/08/08 01:33:18;;;;;;;8.63;7.23;;;12.50;85.20;;;;;;5015184;28;20170;-85
2022/08/08 01:36:15;;;;;;;8.83;6.53;;;12.30;84.90;;;;;;5013265;28;20671;-85
2022/08/08 01:39:31;;;;;;;8.30;6.47;;;12.30;84.90;;;;;;5014655;28;20644;-85
2022/08/08 01:42:21;;;;;;;6.43;5.33;;;12.40;84.50;;;;;;4973219;28;20187;-85
2022/08/08 01:45:08;;;;;;;6.00;5.40;;;12.30;83.90;;;;;;4957894;28;20253;-85
2022/08/08 01:47:58;;;;;;;7.87;5.10;;;12.30;83.90;;;;;;5016247;28;20307;-84
2022/08/08 01:50:44;;;;;;;8.10;5.40;;;12.20;83.70;;;;;;5013709;28;20197;-84
2022/08/08 01:53:42;;;;;;;6.97;4.87;;;12.20;83.60;;;;;;5029299;28;20197;-85
2022/08/08 01:56:58;;;;;;;6.17;5.57;;;12.20;83.30;;;;;;5012811;28;20292;-85
2022/08/08 01:59:48;;;;;;;6.30;5.47;;;12.00;83.00;;;;;;5013159;28;20178;-85
2022/08/08 02:02:22;;;;;;;6.03;5.03;;;12.10;83.00;;;;;;5015082;28;20181;-85
2022/08/08 02:05:17;;;;;;;6.20;4.97;;;12.10;82.80;;;;;;5013086;28;20171;-85
2022/08/08 02:08:16;;;;;;;6.77;5.07;;;12.10;82.70;;;;;;5014433;28;20603;-85
2022/08/08 02:10:53;;;;;;;5.10;4.60;;;12.10;82.30;;;;;;5013767;28;20208;-85
2022/08/08 02:13:44;;;;;;;6.40;5.30;;;12.10;82.00;;;;;;5013060;28;20231;-85
2022/08/08 02:16:46;;;;;;;6.87;5.07;;;12.10;82.00;;;;;;5013470;28;20695;-85
2022/08/08 02:19:18;;;;;;;7.60;5.37;;;12.00;82.10;;;;;;5007747;28;20189;-85
2022/08/08 02:24:50;;;;;;;8.40;6.90;;;12.00;82.50;;;;;;5019868;28;20169;-85
2022/08/08 02:27:20;;;;;;;8.40;6.43;;;11.70;83.20;;;;;;5018168;28;20196;-86
2022/08/08 02:30:04;;;;;;;10.33;7.27;;;11.50;84.20;;;;;;5017597;28;20641;-84
2022/08/08 02:32:59;;;;;;;11.10;7.70;;;11.50;84.80;;;;;;5020170;28;20189;-84
2022/08/08 02:35:43;;;;;;;10.97;7.47;;;11.30;85.40;;;;;;5018702;28;20177;-84
2022/08/08 02:38:24;;;;;;;10.43;7.57;;;11.30;85.90;;;;;;5017042;28;20228;-84
2022/08/08 02:41:26;;;;;;;11.13;7.83;;;11.30;86.20;;;;;;5018216;28;20208;-84
2022/08/08 02:44:24;;;;;;;8.53;7.57;;;11.30;86.30;;;;;;5017320;28;20679;-84
2022/08/08 02:47:02;;;;;;;8.40;7.23;;;11.40;86.40;;;;;;5016498;28;20713;-84
2022/08/08 02:50:04;;;;;;;8.07;6.80;;;11.50;86.50;;;;;;5017948;28;20161;-84
2022/08/08 02:52:56;;;;;;;8.37;6.87;;;11.50;86.40;;;;;;5009986;28;20226;-85
2022/08/08 02:55:40;;;;;;;7.43;6.70;;;11.60;86.30;;;;;;5017339;28;20158;-85
2022/08/08 02:58:43;;;;;;;6.87;6.27;;;11.70;86.30;;;;;;5016968;28;20181;-84
2022/08/08 03:01:17;;;;;;;10.23;7.00;;;11.80;86.20;;;;;;5016133;28;20225;-85
2022/08/08 03:04:22;;;;;;;7.17;6.20;;;11.80;86.20;;;;;;5016311;28;20639;-84
2022/08/08 03:07:32;;;;;;;7.80;6.43;;;11.80;86.20;;;;;;5017946;28;20193;-84
2022/08/08 03:10:48;;;;;;;6.53;5.90;;;11.90;86.20;;;;;;5017510;28;20169;-84
2022/08/08 03:13:41;;;;;;;11.53;7.37;;;12.00;86.10;;;;;;5017220;28;20596;-84
2022/08/08 03:16:45;;;;;;;11.07;6.03;;;12.10;86.00;;;;;;5017311;28;20197;-84
2022/08/08 03:19:43;;;;;;;7.80;6.20;;;12.00;85.80;;;;;;5002081;28;20220;-84
2022/08/08 03:22:09;;;;;;;7.40;5.23;;;12.10;85.90;;;;;;5020820;28;20252;-84
2022/08/08 03:24:34;;;;;;;9.13;6.33;;;12.10;85.90;;;;;;5017462;28;20535;-84
2022/08/08 03:27:15;;;;;;;7.13;6.43;;;12.10;85.80;;;;;;5016819;28;20201;-84
2022/08/08 03:29:47;;;;;;;10.40;6.93;;;12.00;85.60;;;;;;5015789;28;20157;-84
2022/08/08 03:34:57;;;;;;;9.53;7.13;;;12.00;85.70;;;;;;5016771;28;20199;-85
2022/08/08 03:37:23;;;;;;;8.80;6.47;;;12.10;85.40;;;;;;5015356;28;20221;-84
2022/08/08 03:39:48;;;;;;;9.30;7.30;;;12.20;85.30;;;;;;5015767;28;20181;-84
2022/08/08 03:42:17;;;;;;;7.90;6.47;;;12.20;85.60;;;;;;5017053;28;20205;-84
2022/08/08 03:44:43;;;;;;;8.17;7.13;;;12.20;86.80;;;;;;5017157;28;20180;-85
2022/08/08 03:47:09;;;;;;;7.90;5.97;;;12.30;86.80;;;;;;5015473;28;20765;-85
2022/08/08 03:49:37;;;;;;;8.47;7.47;;;12.30;86.70;;;;;;5016639;28;20173;-85
2022/08/08 03:52:02;;;;;;;9.90;6.73;;;12.30;86.60;;;;;;5015631;28;20178;-85
2022/08/08 03:54:28;;;;;;;7.80;6.47;;;12.30;86.50;;;;;;5017152;28;20181;-85
2022/08/08 03:56:54;;;;;;;8.63;6.27;;;12.30;86.50;;;;;;5015344;28;20292;-84
2022/08/08 03:59:19;;;;;;;10.40;7.47;;;12.30;86.50;;;;;;5015308;28;20181;-84
2022/08/08 04:01:45;;;;;;;9.37;6.97;;;12.30;86.60;;;;;;5014769;28;20197;-85
2022/08/08 04:04:11;;;;;;;7.30;5.77;;;12.30;86.60;;;;;;5016551;28;20176;-85
2022/08/08 04:06:38;;;;;;;8.03;5.80;;;12.30;86.60;;;;;;5016375;28;20691;-85
2022/08/08 04:09:06;;;;;;;8.17;5.70;;;12.30;86.70;;;;;;5015101;28;20181;-84
2022/08/08 04:11:33;;;;;;;8.83;5.77;;;12.30;86.70;;;;;;5016588;28;20181;-84
2022/08/08 04:13:58;;;;;;;12.93;6.43;;;12.40;86.70;;;;;;5015234;28;20668;-84
2022/08/08 04:16:25;;;;;;;12.93;6.37;;;12.40;86.70;;;;;;5014721;28;20232;-84
2022/08/08 04:18:51;;;;;;;7.23;6.43;;;12.60;86.70;;;;;;5014430;28;20182;-84
2022/08/08 04:21:17;;;;;;;6.07;5.30;;;12.70;86.70;;;;;;5016118;28;20196;-84
2022/08/08 04:23:43;;;;;;;7.00;6.20;;;12.70;86.60;;;;;;5014328;28;20174;-85
2022/08/08 04:26:09;;;;;;;8.97;5.83;;;12.70;86.50;;;;;;5014556;28;20190;-85
2022/08/08 04:28:35;;;;;;;8.03;5.60;;;12.70;86.30;;;;;;5014380;28;20181;-85
2022/08/08 04:31:01;;;;;;;6.63;6.03;;;12.70;86.30;;;;;;5014693;28;20224;-84
2022/08/08 04:33:26;;;;;;;8.63;6.03;;;12.70;86.30;;;;;;5016042;28;20596;-85
2022/08/08 04:35:52;;;;;;;7.67;5.60;;;12.80;86.30;;;;;;5014277;28;20201;-85
2022/08/08 04:38:18;;;;;;;8.73;6.17;;;12.80;86.20;;;;;;5014264;28;20181;-85
2022/08/08 04:40:44;;;;;;;6.37;5.77;;;12.80;86.10;;;;;;5015484;28;20198;-85
2022/08/08 04:43:09;;;;;;;9.23;5.37;;;12.90;86.00;;;;;;5015649;28;20178;-84
2022/08/08 04:45:35;;;;;;;7.93;5.67;;;12.90;85.90;;;;;;5013766;28;20346;-84
2022/08/08 04:48:01;;;;;;;6.53;5.93;;;12.90;85.80;;;;;;5014205;28;20628;-85
2022/08/08 04:50:27;;;;;;;10.27;6.20;;;12.90;86.00;;;;;;5014897;28;20181;-85
2022/08/08 04:52:54;;;;;;;7.87;5.63;;;12.80;86.00;;;;;;5013864;28;20648;-84
2022/08/08 04:55:19;;;;;;;8.83;5.83;;;12.80;86.00;;;;;;5014052;28;20217;-85
2022/08/08 04:57:45;;;;;;;8.33;7.17;;;12.90;85.90;;;;;;5015077;28;20255;-85
2022/08/08 05:00:11;;;;;;;7.17;6.50;;;12.80;85.90;;;;;;5013736;28;20177;-84
2022/08/08 05:02:37;;;;;;;12.33;7.93;;;12.70;86.10;;;;;;5013785;28;20659;-85
2022/08/08 05:05:03;;;;;;;10.83;7.20;;;12.60;86.30;;;;;;5015057;28;20177;-84
2022/08/08 05:07:29;;;;;;;9.77;6.83;;;12.60;86.50;;;;;;5013711;28;20220;-85
2022/08/08 05:09:55;;;;;;;8.67;7.40;;;12.60;86.60;;;;;;5015095;28;20177;-84
2022/08/08 05:12:21;;;;;;;7.37;6.27;;;12.60;86.60;;;;;;5014518;28;20181;-85
2022/08/08 05:14:46;;;;;;;7.90;7.00;;;12.60;86.70;;;;;;5015442;28;20181;-84
2022/08/08 05:17:12;;;;;;;8.43;7.00;;;12.70;86.80;;;;;;5015716;28;20200;-84
2022/08/08 05:19:37;;;;;;;8.23;7.43;;;12.70;86.90;;;;;;5013895;28;20265;-85
2022/08/08 05:22:05;;;;;;;10.20;6.90;;;12.80;86.80;;;;;;5015101;28;20213;-85
2022/08/08 05:24:31;;;;;;;9.07;7.50;;;12.80;86.80;;;;;;5014858;28;20181;-85
2022/08/08 05:26:57;;;;;;;9.00;7.80;;;12.90;87.00;;;;;;5014940;28;20197;-85
2022/08/08 05:29:22;;;;;;;10.07;6.60;;;13.00;87.00;;;;;;5014880;28;20178;-85
2022/08/08 05:31:48;;;;;;;8.00;6.70;;;13.00;87.10;;;;;;5015502;28;20181;-84
2022/08/08 05:34:32;;;;;;;10.03;7.70;;;13.10;87.20;;;;;;5013732;28;20193;-85
2022/08/08 05:36:59;;;;;;;10.03;8.10;;;13.10;87.30;;;;;;5013600;28;20201;-85
2022/08/08 05:39:26;;;;;;;8.70;6.87;;;13.20;87.40;;;;;;5014707;28;20188;-85
2022/08/08 05:41:52;;;;;;;10.33;7.60;;;13.30;87.50;;;;;;5013311;28;20213;-85
2022/08/08 05:44:29;;;;;;;9.63;7.73;;;13.30;87.50;;;;;;5013583;28;20256;-85
2022/08/08 05:46:57;;;;;;;10.50;9.40;;;13.30;87.60;;;;;;5013178;28;20212;-85
2022/08/08 05:49:23;;;;;;;13.07;9.03;;;13.30;87.70;;;;;;5012855;28;20181;-85
2022/08/08 05:51:48;;;;;;;14.03;8.23;;;13.40;87.90;;;;;;5013842;28;20184;-84
2022/08/08 05:54:16;;;;;;;12.27;9.77;;;13.40;87.90;;;;;;5012619;28;20181;-85
2022/08/08 05:56:43;;;;;;;19.27;12.27;;;13.50;87.90;;;;;;5014070;28;20207;-85
2022/08/08 05:59:17;;;;;;;18.03;12.47;;;13.60;88.40;;;;;;5012899;28;20188;-85
2022/08/08 06:01:53;;;;;;;25.13;14.73;;;13.80;89.10;;;;;;5012879;28;20291;-85
2022/08/08 06:04:23;;;;;;;22.73;14.93;;;14.00;89.30;;;;;;5014237;28;20245;-85
2022/08/08 06:06:50;;;;;;;23.27;15.40;;;14.10;89.40;;;;;;5012766;28;20197;-85
2022/08/08 06:09:27;;;;;;;25.40;16.17;;;14.40;89.70;;;;;;5013254;28;20232;-85
2022/08/08 06:11:58;;;;;;;17.17;15.33;;;14.60;89.70;;;;;;5013370;28;20177;-85
2022/08/08 06:14:25;;;;;;;22.77;15.30;;;14.80;89.60;;;;;;5014299;28;20628;-85
2022/08/08 06:16:52;;;;;;;26.13;16.33;;;14.80;89.70;;;;;;5013367;28;20740;-84
2022/08/08 06:19:18;;;;;;;19.07;14.57;;;15.00;89.70;;;;;;5014614;28;20174;-85
2022/08/08 06:21:47;;;;;;;18.50;12.43;;;15.20;89.90;;;;;;5015903;28;20204;-84
2022/08/08 06:24:13;;;;;;;19.77;12.37;;;15.20;89.70;;;;;;5016539;28;20184;-83
2022/08/08 06:26:43;;;;;;;18.47;14.50;;;15.30;89.70;;;;;;5016813;28;20197;-84
2022/08/08 06:29:13;;;;;;;17.67;13.97;;;15.50;89.80;;;;;;5016157;28;20177;-84
2022/08/08 06:31:42;;;;;;;18.17;12.17;;;15.60;89.60;;;;;;5015697;28;20683;-84
2022/08/08 06:34:17;;;;;;;16.83;13.30;;;15.70;89.40;;;;;;5013628;28;20243;-85
2022/08/08 06:36:44;;;;;;;17.67;13.07;;;15.80;89.20;;;;;;5012150;28;20211;-85
2022/08/08 06:39:13;;;;;;;15.03;12.47;;;15.90;89.30;;;;;;5011969;28;20185;-85
2022/08/08 06:41:56;;;;;;;15.93;11.65;;;16.10;88.70;;;;;;5013141;28;20225;-85
2022/08/08 06:44:24;;;;;;;15.23;11.80;;;16.20;88.60;;;;;;5011978;28;20209;-84
2022/08/08 06:46:51;;;;;;;14.32;9.25;;;16.30;88.50;;;;;;5011841;28;20220;-84
2022/08/08 06:49:17;;;;;;;12.10;8.23;;;16.50;87.80;;;;;;5011912;28;20714;-84
2022/08/08 06:51:43;;;;;;;11.95;7.38;;;16.60;86.50;;;;;;5012253;28;20181;-85
2022/08/08 06:54:09;;;;;;;8.95;5.80;;;16.70;86.00;;;;;;5011958;28;20553;-85
2022/08/08 06:56:35;;;;;;;8.00;5.07;;;16.90;85.60;;;;;;5012087;28;20297;-85
2022/08/08 06:59:02;;;;;;;6.90;5.07;;;17.00;84.50;;;;;;5013678;28;20229;-85
2022/08/08 07:01:35;;;;;;;11.40;5.50;;;17.00;83.70;;;;;;5012535;28;20200;-85
2022/08/08 07:04:37;;;;;;;11.00;5.22;;;17.20;83.70;;;;;;5013891;28;20161;-85
2022/08/08 07:07:07;;;;;;;8.05;4.95;;;17.20;83.50;;;;;;5016753;28;20193;-85
2022/08/08 07:09:49;;;;;;;9.40;4.50;;;17.20;83.00;;;;;;5018983;28;20154;-84
2022/08/08 07:12:26;;;;;;;8.48;4.25;;;17.20;82.20;;;;;;5019177;28;20158;-85
2022/08/08 07:15:03;;;;;;;8.18;3.40;;;17.40;82.80;;;;;;5019567;28;20153;-85
2022/08/08 07:17:35;;;;;;;14.05;4.35;;;17.50;82.10;;;;;;5020689;28;20690;-85
2022/08/08 07:20:06;;;;;;;7.57;3.88;;;17.50;81.50;;;;;;5019760;28;20219;-85
2022/08/08 07:22:45;;;;;;;5.40;4.13;;;17.70;81.30;;;;;;5021244;28;20194;-84
2022/08/08 07:25:11;;;;;;;9.32;3.47;;;17.80;81.10;;;;;;5020498;28;20169;-85
2022/08/08 07:27:44;;;;;;;6.15;3.03;;;17.80;81.10;;;;;;5022113;28;20562;-85
2022/08/08 07:30:11;;;;;;;7.95;4.03;;;17.90;80.70;;;;;;5020493;28;20204;-85
2022/08/08 07:32:38;;;;;;;8.50;4.50;;;18.00;81.00;;;;;;5020632;28;20602;-85
2022/08/08 07:35:05;;;;;;;10.32;5.00;;;18.20;81.10;;;;;;5020296;28;20180;-84
2022/08/08 07:37:32;;;;;;;5.03;2.63;;;18.20;80.40;;;;;;5022334;28;20194;-85
2022/08/08 07:39:57;;;;;;;9.65;3.53;;;18.10;78.10;;;;;;5021696;28;20659;-84
2022/08/08 07:42:24;;;;;;;10.98;3.88;;;18.30;79.50;;;;;;5022761;28;20199;-85
2022/08/08 07:44:50;;;;;;;7.28;3.45;;;18.40;79.60;;;;;;5017798;28;20178;-85
2022/08/08 07:47:15;;;;;;;6.30;2.63;;;18.40;79.60;;;;;;5017964;28;20259;-85
2022/08/08 07:49:41;;;;;;;6.82;2.67;;;18.50;79.30;;;;;;5016729;28;20228;-85
2022/08/08 07:52:09;;;;;;;6.70;2.60;;;18.50;78.50;;;;;;5017645;28;20177;-85
2022/08/08 07:55:04;;;;;;;8.90;3.67;;;18.60;78.50;;;;;;5017670;28;20173;-85
2022/08/08 07:57:48;;;;;;;10.45;3.00;;;18.70;78.40;;;;;;5018230;28;20193;-85
2022/08/08 08:00:15;;;;;;;7.80;2.60;;;18.80;77.10;;;;;;5017449;28;20184;-85
2022/08/08 08:03:06;;;;;;;10.88;3.15;;;18.70;76.80;;;;;;5017110;28;20176;-85
2022/08/08 08:05:38;;;;;;;7.88;3.60;;;18.60;76.90;;;;;;5017441;28;20162;-85
2022/08/08 08:08:09;;;;;;;9.57;2.72;;;18.70;76.60;;;;;;5017460;28;20247;-86
2022/08/08 08:10:38;;;;;;;10.35;2.40;;;18.60;76.60;;;;;;5018331;28;20225;-86
2022/08/08 08:13:30;;;;;;;7.80;2.22;;;18.70;76.20;;;;;;5018395;28;20177;-85
2022/08/08 08:16:03;;;;;;;6.38;2.35;;;18.80;75.30;;;;;;4995878;28;20207;-86
2022/08/08 08:18:44;;;;;;;7.60;2.40;;;19.10;75.50;;;;;;5014959;28;20180;-85
2022/08/08 08:21:11;;;;;;;6.85;2.20;;;19.20;75.00;;;;;;5013999;28;20213;-85
2022/08/08 08:23:37;;;;;;;8.40;2.75;;;19.00;73.90;;;;;;5015285;28;20174;-85
2022/08/08 08:26:03;;;;;;;5.38;1.90;;;19.20;75.20;;;;;;5015410;28;20280;-85
2022/08/08 08:28:29;;;;;;;5.93;1.98;;;19.40;74.10;;;;;;5015511;28;20177;-85
2022/08/08 08:31:24;;;;;;;;;;;;;;;;;;;;;
2022/08/08 08:33:50;;;;;;;8.60;2.13;;;19.70;72.00;;;;;;5015012;28;20185;-85
2022/08/08 08:36:17;;;;;;;5.47;2.15;;;19.70;72.00;;;;;;5014717;28;20288;-86
2022/08/08 08:38:43;;;;;;;15.73;2.42;;;19.70;71.90;;;;;;5014962;28;20231;-85
2022/08/08 08:41:12;;;;;;;9.57;1.73;;;19.80;71.50;;;;;;5015183;28;20560;-84
2022/08/08 08:43:39;;;;;;;8.20;2.05;;;19.90;69.40;;;;;;5013796;28;20264;-85
2022/08/08 08:46:10;;;;;;;8.38;2.03;;;19.80;68.80;;;;;;5013742;28;20618;-83
2022/08/08 08:48:40;;;;;;;4.63;1.65;;;19.90;68.60;;;;;;5015613;28;20174;-86
2022/08/08 08:51:10;;;;;;;4.72;1.88;;;20.00;68.40;;;;;;5014883;28;20231;-85
2022/08/08 08:53:40;;;;;;;5.78;1.90;;;19.90;68.60;;;;;;5013569;28;20555;-85
2022/08/08 08:56:06;;;;;;;9.05;2.42;;;20.00;66.50;;;;;;5013629;28;20204;-85
2022/08/08 08:58:43;;;;;;;5.97;2.03;;;20.00;66.80;;;;;;5014779;28;20174;-84
2022/08/08 09:01:13;;;;;;;4.60;2.00;;;20.10;67.80;;;;;;5014820;28;20205;-84
2022/08/08 09:03:47;;;;;;;8.45;1.88;;;20.20;68.30;;;;;;5013316;28;20204;-85
2022/08/08 09:06:22;;;;;;;5.00;2.15;;;20.20;68.10;;;;;;5014923;28;20663;-84
2022/08/08 09:09:04;;;;;;;3.92;1.70;;;20.00;68.30;;;;;;5013415;28;20173;-85
2022/08/08 09:11:34;;;;;;;7.40;1.95;;;20.30;69.10;;;;;;5014227;28;20223;-85
2022/08/08 09:14:00;;;;;;;10.52;2.88;;;20.30;65.90;;;;;;5014462;28;20169;-85
2022/08/08 09:16:28;;;;;;;5.43;2.33;;;20.30;66.90;;;;;;5013739;28;20197;-84
2022/08/08 09:18:54;;;;;;;4.78;1.88;;;20.50;67.70;;;;;;5013332;28;20181;-85
2022/08/08 09:21:21;;;;;;;7.80;2.25;;;20.50;68.70;;;;;;5013376;28;20204;-84
2022/08/08 09:23:47;;;;;;;6.80;2.25;;;20.60;67.30;;;;;;5014489;28;20702;-85
2022/08/08 09:26:53;;;;;;;9.35;2.50;;;20.70;68.40;;;;;;5014164;28;20197;-84
2022/08/08 09:29:22;;;;;;;8.07;2.97;;;20.60;67.80;;;;;;5013154;28;20181;-84
2022/08/08 09:31:51;;;;;;;5.88;2.10;;;20.40;68.10;;;;;;5014257;28;20169;-84
2022/08/08 09:34:18;;;;;;;4.53;2.20;;;20.70;68.80;;;;;;5012913;28;20656;-83
2022/08/08 09:36:47;;;;;;;8.48;2.30;;;21.00;68.10;;;;;;5014552;28;20667;-84
2022/08/08 09:39:18;;;;;;;7.60;2.17;;;21.20;67.80;;;;;;5012766;28;20185;-85
2022/08/08 09:41:59;;;;;;;9.23;2.58;;;21.30;65.50;;;;;;5012762;28;20247;-86
2022/08/08 09:45:04;;;;;;;5.40;2.33;;;21.50;66.20;;;;;;5012861;28;20173;-86
2022/08/08 09:47:32;;;;;;;9.10;2.88;;;21.40;65.30;;;;;;5011771;28;20229;-85
2022/08/08 09:49:58;;;;;;;7.78;2.58;;;20.40;67.50;;;;;;5014073;28;20179;-86
2022/08/08 09:52:29;;;;;;;7.28;2.13;;;20.90;68.80;;;;;;5013423;28;20177;-86
2022/08/08 09:54:55;;;;;;;5.43;2.17;;;21.30;66.60;;;;;;5013770;28;20188;-86
2022/08/08 09:57:38;;;;;;;4.75;2.00;;;21.50;66.50;;;;;;5013895;28;20198;-87
2022/08/08 10:00:06;;;;;;;4.93;1.90;;;21.80;65.00;;;;;;5012578;28;20177;-87
2022/08/08 10:02:35;;;;;;;6.60;1.80;;;21.80;64.90;;;;;;5013701;28;20204;-88
2022/08/08 10:05:16;;;;;;;5.97;2.25;;;22.20;64.10;;;;;;5012768;28;20578;-87
2022/08/08 10:07:54;;;;;;;5.95;1.75;;;21.70;64.90;;;;;;5012445;28;20180;-86
2022/08/08 10:10:32;;;;;;;6.65;1.92;;;21.60;64.20;;;;;;5012425;28;20181;-86
2022/08/08 10:13:17;;;;;;;3.75;1.88;;;21.60;63.90;;;;;;5014119;28;20165;-86
2022/08/08 10:15:46;;;;;;;6.50;1.83;;;21.80;63.30;;;;;;5013514;28;20192;-87
2022/08/08 10:18:12;;;;;;;6.65;1.88;;;21.80;63.30;;;;;;5012336;28;20228;-88
2022/08/08 10:20:43;;;;;;;4.85;1.38;;;22.00;61.60;;;;;;5013653;28;20201;-87
2022/08/08 10:23:11;;;;;;;5.93;1.73;;;22.30;61.20;;;;;;5013825;28;20157;-87
2022/08/08 10:25:41;;;;;;;5.70;1.58;;;21.80;61.10;;;;;;5014434;28;20216;-87
2022/08/08 10:28:15;;;;;;;7.75;1.90;;;22.10;61.70;;;;;;5012311;28;20173;-87
2022/08/08 10:30:54;;;;;;;3.85;1.20;;;22.60;59.70;;;;;;5012737;28;20514;-86
2022/08/08 10:33:33;;;;;;;5.13;1.80;;;22.70;56.90;;;;;;5012946;28;20177;-87
2022/08/08 10:36:02;;;;;;;4.22;1.50;;;22.30;56.90;;;;;;5012115;28;20678;-87
2022/08/08 10:38:30;;;;;;;5.55;1.58;;;22.40;55.10;;;;;;5012773;28;20627;-87
2022/08/08 10:41:01;;;;;;;8.82;1.70;;;22.20;58.00;;;;;;5016039;28;20204;-87
2022/08/08 10:43:39;;;;;;;2.30;1.15;;;22.40;56.90;;;;;;5016068;28;20655;-87
2022/08/08 10:48:55;;;;;;;3.45;1.25;;;22.30;54.60;;;;;;5017668;28;20216;-86
2022/08/08 10:51:29;;;;;;;3.88;1.33;;;22.20;56.10;;;;;;5015753;28;20188;-87
2022/08/08 10:53:56;;;;;;;5.00;1.67;;;22.40;56.60;;;;;;5016935;28;20292;-87
2022/08/08 10:56:22;;;;;;;6.95;1.70;;;22.70;56.50;;;;;;5016032;28;20232;-87
2022/08/08 10:59:08;;;;;;;5.40;1.50;;;22.70;56.10;;;;;;5016511;28;20177;-87
2022/08/08 11:01:36;;;;;;;4.32;1.48;;;23.10;56.90;;;;;;5017130;28;20213;-87
2022/08/08 11:04:05;;;;;;;5.22;1.48;;;23.00;54.70;;;;;;5015626;28;20173;-87
2022/08/08 11:06:33;;;;;;;3.53;1.27;;;22.70;55.60;;;;;;5015434;28;20197;-87
2022/08/08 11:09:04;;;;;;;7.35;1.67;;;22.70;54.50;;;;;;5015364;28;20269;-87
2022/08/08 11:11:44;;;;;;;3.70;1.20;;;22.80;57.50;;;;;;5015452;28;20255;-86
2022/08/08 11:14:12;;;;;;;3.20;1.20;;;22.70;54.60;;;;;;5015420;28;20165;-86
2022/08/08 11:16:44;;;;;;;6.38;1.30;;;23.00;53.70;;;;;;5016603;28;20193;-87
2022/08/08 11:19:11;;;;;;;5.53;1.70;;;22.80;56.00;;;;;;5015406;28;20174;-87
2022/08/08 11:21:44;;;;;;;5.90;1.95;;;23.10;56.70;;;;;;5015258;28;20228;-88
2022/08/08 11:24:11;;;;;;;4.88;1.95;;;22.90;55.30;;;;;;5015247;28;20264;-87
2022/08/08 11:26:39;;;;;;;5.15;1.52;;;23.40;57.00;;;;;;5016356;28;20239;-87
2022/08/08 11:29:06;;;;;;;3.58;1.45;;;23.70;56.10;;;;;;5015125;28;20582;-88
2022/08/08 11:31:38;;;;;;;2.88;1.23;;;24.00;53.50;;;;;;5015155;28;20216;-87
2022/08/08 11:34:05;;;;;;;7.07;1.52;;;24.50;53.30;;;;;;5015011;28;20660;-87
2022/08/08 11:36:32;;;;;;;5.32;1.60;;;23.90;56.40;;;;;;5016167;28;20201;-87
2022/08/08 11:38:58;;;;;;;3.92;1.45;;;24.40;55.90;;;;;;5014985;28;20263;-87
2022/08/08 11:41:25;;;;;;;5.38;1.95;;;24.40;52.70;;;;;;5014972;28;20256;-87
2022/08/08 11:43:53;;;;;;;6.90;1.63;;;23.80;54.70;;;;;;5014942;28;20212;-87
2022/08/08 11:46:22;;;;;;;3.80;1.42;;;23.80;56.80;;;;;;5014655;28;20213;-86
2022/08/08 11:48:48;;;;;;;3.65;1.20;;;24.10;55.60;;;;;;5014699;28;20203;-87
2022/08/08 11:51:17;;;;;;;2.80;1.20;;;24.00;55.00;;;;;;5013786;28;20205;-86
2022/08/08 11:53:43;;;;;;;4.50;1.73;;;24.10;54.80;;;;;;5016303;28;20173;-86
2022/08/08 11:56:21;;;;;;;6.13;1.58;;;24.30;51.40;;;;;;5014607;28;20204;-86
2022/08/08 11:58:47;;;;;;;4.50;1.48;;;24.30;53.30;;;;;;5015881;28;20655;-86
2022/08/08 12:01:13;;;;;;;4.28;1.33;;;24.40;52.60;;;;;;5014499;28;20215;-86
2022/08/08 12:03:47;;;;;;;4.35;1.25;;;24.50;48.50;;;;;;5014486;28;20268;-86
2022/08/08 12:06:14;;;;;;;5.68;1.20;;;24.30;50.20;;;;;;5015584;28;20189;-86
2022/08/08 12:08:40;;;;;;;2.45;1.02;;;24.60;52.00;;;;;;5014492;28;20210;-87
2022/08/08 12:11:15;;;;;;;5.18;1.40;;;24.70;50.20;;;;;;5015666;28;20193;-86
2022/08/08 12:13:41;;;;;;;4.00;1.30;;;24.90;49.60;;;;;;5015720;28;20247;-89
2022/08/08 12:16:08;;;;;;;3.55;1.40;;;24.80;49.90;;;;;;5014192;28;20190;-86
2022/08/08 12:18:51;;;;;;;2.78;0.93;;;24.90;52.20;;;;;;5015365;28;20177;-87
2022/08/08 12:21:20;;;;;;;3.33;1.13;;;25.00;51.90;;;;;;5014022;28;20546;-87
2022/08/08 12:23:46;;;;;;;3.72;1.10;;;24.50;51.70;;;;;;5014258;28;20547;-86
2022/08/08 12:26:14;;;;;;;3.38;1.02;;;24.70;49.20;;;;;;5015091;28;20185;-86
2022/08/08 12:28:40;;;;;;;3.67;1.08;;;25.10;48.60;;;;;;5013929;28;20269;-86
2022/08/08 12:31:09;;;;;;;3.70;1.45;;;24.80;49.00;;;;;;5015213;28;20644;-86
2022/08/08 12:33:39;;;;;;;3.92;1.17;;;24.80;48.80;;;;;;5013906;28;20647;-86
2022/08/08 12:36:12;;;;;;;3.78;1.38;;;24.80;50.10;;;;;;5013776;28;20201;-86
2022/08/08 12:38:49;;;;;;;2.90;1.05;;;24.70;49.30;;;;;;5015019;28;20199;-86
2022/08/08 12:41:14;;;;;;;3.58;1.25;;;24.70;49.70;;;;;;5013613;28;20335;-86
2022/08/08 12:43:40;;;;;;;3.50;1.13;;;24.70;50.80;;;;;;5013748;28;20249;-87
2022/08/08 12:46:16;;;;;;;5.60;1.38;;;24.50;50.50;;;;;;5014616;28;20212;-86
2022/08/08 12:48:57;;;;;;;4.65;1.40;;;24.40;51.50;;;;;;5013580;28;20177;-86
2022/08/08 12:51:22;;;;;;;4.15;1.30;;;24.50;52.30;;;;;;5015312;28;20196;-86
2022/08/08 12:53:57;;;;;;;3.65;1.45;;;24.30;54.10;;;;;;5013569;28;20644;-86
2022/08/08 12:56:32;;;;;;;4.63;1.30;;;24.50;51.10;;;;;;5013387;28;20239;-86
2022/08/08 12:58:58;;;;;;;4.22;1.40;;;24.10;54.80;;;;;;5014828;28;20157;-86
2022/08/08 13:01:36;;;;;;;5.90;1.30;;;24.60;53.90;;;;;;5013216;28;20212;-86
2022/08/08 13:04:20;;;;;;;4.63;1.17;;;24.80;50.90;;;;;;5013634;28;20639;-86
2022/08/08 13:07:03;;;;;;;4.80;1.80;;;25.00;50.50;;;;;;5013152;28;20197;-86
2022/08/08 13:09:58;;;;;;;6.53;1.33;;;25.00;50.80;;;;;;5013404;28;20165;-86
2022/08/08 13:12:38;;;;;;;5.00;1.25;;;24.80;51.00;;;;;;5013285;28;20212;-87
2022/08/08 13:15:09;;;;;;;3.08;1.00;;;24.90;50.80;;;;;;5013076;28;20177;-86
2022/08/08 13:17:35;;;;;;;5.13;1.63;;;25.00;50.60;;;;;;5012982;28;20197;-86
2022/08/08 13:20:05;;;;;;;3.38;1.08;;;24.70;51.30;;;;;;5013323;28;20181;-86
2022/08/08 13:22:35;;;;;;;6.22;1.45;;;24.40;52.20;;;;;;5013036;28;20215;-86
2022/08/08 13:25:02;;;;;;;3.90;1.40;;;24.40;54.30;;;;;;5013020;28;20646;-87
2022/08/08 13:27:29;;;;;;;4.13;1.67;;;24.50;53.60;;;;;;5014192;28;20247;-86
2022/08/08 13:30:00;;;;;;;4.03;1.55;;;23.70;54.10;;;;;;5012970;28;20577;-86
2022/08/08 13:32:29;;;;;;;4.07;2.10;;;23.70;55.90;;;;;;5014300;28;20162;-87